Oshawa Airport

CYOO | YOO

Oshawa , Ontario , Canada

Sunday, January 19th, 2020 | 13:13

Weather

CYOO 191800Z AUTO 32010G15KT 9SM BKN110 OVC140 M09/M12 A2990 RMK SLP133

Charts

No Charts Available

Gates

No Gates Available

Runways

2 Available

Events

No events for this airport


New event